Time;durP1;ratioP1;P1;durP2;ratioP2;P2;SDS_P1;SDS_P2;PMS_P1;PMS_P2;Temp;Humidity;BMP_temperature;BMP_pressure;BME280_temperature;BME280_humidity;BME280_pressure;Samples;Min_cycle;Max_cycle;Signal;HPM_P1;HPM_P2
2021/04/01 00:02:30;;;;;;;23.10;11.55;;;15.00;71.70;;;;;;5056358;28;20029;-86
2021/04/01 00:04:56;;;;;;;23.63;11.90;;;14.90;72.10;;;;;;5056180;28;20028;-85
2021/04/01 00:07:22;;;;;;;18.80;10.93;;;14.90;71.70;;;;;;5056409;28;20489;-84
2021/04/01 00:09:48;;;;;;;26.88;12.43;;;14.80;72.50;;;;;;5073461;28;20025;-86
2021/04/01 00:12:14;;;;;;;22.50;11.68;;;14.80;72.90;;;;;;5074036;28;20027;-86
2021/04/01 00:14:41;;;;;;;20.27;11.30;;;14.80;72.90;;;;;;5074130;28;20103;-85
2021/04/01 00:17:07;;;;;;;24.52;11.95;;;14.70;73.30;;;;;;5074361;28;20044;-86
2021/04/01 00:19:33;;;;;;;27.05;12.35;;;14.70;73.70;;;;;;5055512;28;20071;-86
2021/04/01 00:21:59;;;;;;;27.80;13.30;;;14.70;73.70;;;;;;5072467;28;20052;-86
2021/04/01 00:24:24;;;;;;;25.52;13.00;;;14.70;73.30;;;;;;5073754;28;20032;-85
2021/04/01 00:26:50;;;;;;;33.20;14.32;;;14.60;73.40;;;;;;5055930;28;20020;-86
2021/04/01 00:29:16;;;;;;;29.17;14.30;;;14.60;73.60;;;;;;5055306;28;20100;-86
2021/04/01 00:31:41;;;;;;;30.27;14.20;;;14.60;73.60;;;;;;5055710;28;20031;-85
2021/04/01 00:34:07;;;;;;;26.63;14.23;;;14.50;73.70;;;;;;5073420;28;20497;-85
2021/04/01 00:36:32;;;;;;;27.38;14.70;;;14.50;73.90;;;;;;5073656;28;20115;-85
2021/04/01 00:38:58;;;;;;;30.60;15.63;;;14.50;74.00;;;;;;5073130;28;20027;-86
2021/04/01 00:41:24;;;;;;;31.05;15.27;;;14.50;73.70;;;;;;5073606;28;20021;-86
2021/04/01 00:43:49;;;;;;;37.05;16.45;;;14.40;73.80;;;;;;5073484;28;20032;-86
2021/04/01 00:46:15;;;;;;;36.90;17.03;;;14.40;73.30;;;;;;5073350;28;20025;-85
2021/04/01 00:48:41;;;;;;;34.97;17.03;;;14.30;73.00;;;;;;5055303;28;20378;-86
2021/04/01 00:51:06;;;;;;;37.73;17.83;;;14.30;73.00;;;;;;5053942;28;20632;-83
2021/04/01 00:53:32;;;;;;;37.63;19.03;;;14.20;72.60;;;;;;5055614;28;20020;-85
2021/04/01 00:55:58;;;;;;;37.30;18.83;;;14.20;72.50;;;;;;5073263;28;20363;-85
2021/04/01 00:58:24;;;;;;;37.67;19.23;;;14.10;72.30;;;;;;5055121;28;20394;-86
2021/04/01 01:00:59;;;;;;;39.30;19.47;;;14.10;72.50;;;;;;5072548;28;20021;-86
2021/04/01 01:03:25;;;;;;;36.63;18.20;;;14.20;72.90;;;;;;5055095;28;20435;-86
2021/04/01 01:05:50;;;;;;;39.10;18.47;;;14.20;72.70;;;;;;5073048;28;20095;-86
2021/04/01 01:08:16;;;;;;;39.07;19.07;;;14.20;72.40;;;;;;5055204;28;20499;-85
2021/04/01 01:10:41;;;;;;;37.83;18.53;;;14.20;73.10;;;;;;5072336;28;20523;-85
2021/04/01 01:13:07;;;;;;;32.77;17.90;;;14.20;72.70;;;;;;5072775;28;20020;-86
2021/04/01 01:15:33;;;;;;;35.13;18.17;;;14.20;73.20;;;;;;5055108;28;20085;-86
2021/04/01 01:17:59;;;;;;;39.50;17.43;;;14.20;73.30;;;;;;5072940;28;20023;-86
2021/04/01 01:20:26;;;;;;;37.50;17.87;;;14.20;73.40;;;;;;5072223;28;20029;-86
2021/04/01 01:22:53;;;;;;;37.37;17.90;;;14.20;73.20;;;;;;5071520;28;20031;-85
2021/04/01 01:25:21;;;;;;;32.50;17.47;;;14.20;73.50;;;;;;5072923;28;20029;-86
2021/04/01 01:27:47;;;;;;;35.77;18.70;;;14.20;73.80;;;;;;5072662;28;20025;-85
2021/04/01 01:30:17;;;;;;;35.13;18.40;;;14.10;74.10;;;;;;5054205;28;20025;-86
2021/04/01 01:32:45;;;;;;;36.23;18.33;;;14.20;74.00;;;;;;5072486;28;20025;-85
2021/04/01 01:35:19;;;;;;;33.37;17.43;;;14.10;74.20;;;;;;5073371;28;20020;-85
2021/04/01 01:37:51;;;;;;;33.10;17.60;;;14.10;74.50;;;;;;5073148;28;20430;-85
2021/04/01 01:40:21;;;;;;;35.00;17.53;;;14.00;74.50;;;;;;5055227;28;20067;-85
2021/04/01 01:42:49;;;;;;;35.30;18.10;;;14.00;74.90;;;;;;5055017;28;20116;-85
2021/04/01 01:45:15;;;;;;;36.37;18.80;;;13.90;75.20;;;;;;5071763;28;20029;-85
2021/04/01 01:47:41;;;;;;;37.40;18.93;;;13.90;75.20;;;;;;5055097;28;20025;-85
2021/04/01 01:50:10;;;;;;;39.73;20.03;;;13.80;74.80;;;;;;5054715;28;20036;-85
2021/04/01 01:52:36;;;;;;;43.50;20.20;;;13.80;74.50;;;;;;5054748;28;20025;-85
2021/04/01 01:55:01;;;;;;;42.83;20.43;;;13.80;74.50;;;;;;5071462;28;20020;-85
2021/04/01 01:57:27;;;;;;;40.17;19.37;;;13.80;74.80;;;;;;5054861;28;20020;-85
2021/04/01 01:59:53;;;;;;;41.93;19.33;;;13.70;75.40;;;;;;5072629;28;20155;-85
2021/04/01 02:02:18;;;;;;;39.87;19.23;;;13.80;74.80;;;;;;5054308;28;20433;-86
2021/04/01 02:04:44;;;;;;;39.87;19.77;;;13.80;74.80;;;;;;5054449;28;20025;-85
2021/04/01 02:07:09;;;;;;;42.07;20.07;;;13.70;75.40;;;;;;5054541;28;20028;-85
2021/04/01 02:09:35;;;;;;;39.60;20.13;;;13.80;75.40;;;;;;5072605;28;20021;-85
2021/04/01 02:12:01;;;;;;;37.53;19.33;;;13.80;75.10;;;;;;5072552;28;20028;-87
2021/04/01 02:14:26;;;;;;;41.03;20.17;;;13.70;75.10;;;;;;5054644;28;20021;-85
2021/04/01 02:16:52;;;;;;;41.37;20.83;;;13.60;75.30;;;;;;5054785;28;20024;-85
2021/04/01 02:19:18;;;;;;;43.93;21.43;;;13.60;75.60;;;;;;5071229;28;20024;-85
2021/04/01 02:21:43;;;;;;;45.93;23.57;;;13.60;75.30;;;;;;5072470;28;20028;-85
2021/04/01 02:24:09;;;;;;;40.90;21.67;;;13.60;75.00;;;;;;5071366;28;20029;-85
2021/04/01 02:26:35;;;;;;;45.80;22.13;;;13.70;74.90;;;;;;5072617;28;20024;-85
2021/04/01 02:29:00;;;;;;;45.50;23.37;;;13.60;74.30;;;;;;5072604;28;20036;-85
2021/04/01 02:31:26;;;;;;;45.73;22.30;;;13.70;74.70;;;;;;5054380;28;20032;-85
2021/04/01 02:33:53;;;;;;;45.93;23.47;;;13.70;74.90;;;;;;5072375;28;20044;-85
2021/04/01 02:36:18;;;;;;;49.47;23.60;;;13.60;74.20;;;;;;5072315;28;20021;-86
2021/04/01 02:38:44;;;;;;;47.07;23.03;;;13.60;74.00;;;;;;5054340;28;20069;-85
2021/04/01 02:41:10;;;;;;;46.00;22.33;;;13.60;74.40;;;;;;5054280;28;20170;-85
2021/04/01 02:43:36;;;;;;;45.73;21.87;;;13.50;74.70;;;;;;5054312;28;20190;-85
2021/04/01 02:46:06;;;;;;;47.20;22.37;;;13.50;75.00;;;;;;5071767;28;20495;-85
2021/04/01 02:48:32;;;;;;;44.03;22.87;;;13.50;75.30;;;;;;5054122;28;20536;-86
2021/04/01 02:50:58;;;;;;;43.30;21.90;;;13.50;75.40;;;;;;5054599;28;20116;-87
2021/04/01 02:53:24;;;;;;;42.30;22.00;;;13.50;75.70;;;;;;5072327;28;20492;-87
2021/04/01 02:55:50;;;;;;;43.23;21.70;;;13.50;75.50;;;;;;5054414;28;20025;-86
2021/04/01 02:58:17;;;;;;;48.77;22.60;;;13.60;75.10;;;;;;5070980;28;20111;-85
2021/04/01 03:00:43;;;;;;;44.47;22.87;;;13.50;75.00;;;;;;5054324;28;20028;-85
2021/04/01 03:03:19;;;;;;;46.57;23.37;;;13.60;75.10;;;;;;5072253;28;20036;-85
2021/04/01 03:05:44;;;;;;;50.93;22.77;;;13.60;75.20;;;;;;5072181;28;20070;-86
2021/04/01 03:08:11;;;;;;;46.17;23.30;;;13.70;74.60;;;;;;5072075;28;20036;-85
2021/04/01 03:10:37;;;;;;;47.03;22.93;;;13.70;74.80;;;;;;5071952;28;20032;-86
2021/04/01 03:13:03;;;;;;;51.77;24.83;;;13.60;74.90;;;;;;5055084;28;20547;-87
2021/04/01 03:15:29;;;;;;;45.30;22.70;;;13.60;74.70;;;;;;5075558;28;20025;-85
2021/04/01 03:17:55;;;;;;;45.30;23.17;;;13.60;74.80;;;;;;5075663;28;20078;-85
2021/04/01 03:20:20;;;;;;;43.70;21.83;;;13.60;75.10;;;;;;5057700;28;20473;-88
2021/04/01 03:22:46;;;;;;;42.27;22.60;;;13.70;75.30;;;;;;5075468;28;20040;-85
2021/04/01 03:25:13;;;;;;;44.60;21.43;;;13.80;75.40;;;;;;5074281;28;20468;-85
2021/04/01 03:27:40;;;;;;;44.40;21.33;;;13.80;75.40;;;;;;5057594;28;20032;-85
2021/04/01 03:30:16;;;;;;;39.00;20.20;;;13.80;75.40;;;;;;5057448;28;20461;-85
2021/04/01 03:32:47;;;;;;;31.67;17.63;;;13.90;75.80;;;;;;5057230;28;20044;-85
2021/04/01 03:35:18;;;;;;;32.47;16.10;;;13.90;76.00;;;;;;5075392;28;20031;-85
2021/04/01 03:37:45;;;;;;;28.73;15.73;;;13.90;76.50;;;;;;5057443;28;20115;-85
2021/04/01 03:40:11;;;;;;;30.83;15.77;;;13.90;77.00;;;;;;5057247;28;20510;-87
2021/04/01 03:42:38;;;;;;;29.00;14.67;;;13.80;77.40;;;;;;5057313;28;20432;-85
2021/04/01 03:45:09;;;;;;;29.57;13.80;;;13.70;78.00;;;;;;5075141;28;20102;-85
2021/04/01 03:47:35;;;;;;;24.47;12.80;;;13.70;78.90;;;;;;5075265;28;20500;-85
2021/04/01 03:50:00;;;;;;;27.60;14.07;;;13.70;79.60;;;;;;5057084;28;20064;-85
2021/04/01 03:52:26;;;;;;;27.27;13.73;;;13.70;79.60;;;;;;5074885;28;20073;-85
2021/04/01 03:55:00;;;;;;;22.07;12.73;;;13.70;79.90;;;;;;5057046;28;20029;-85
2021/04/01 03:57:26;;;;;;;24.40;13.40;;;13.60;79.60;;;;;;5075076;28;20062;-85
2021/04/01 04:15:14;;;;;;;22.70;12.60;;;13.40;79.90;;;;;;5074628;28;20366;-85
2021/04/01 04:17:39;;;;;;;23.73;13.27;;;13.40;79.80;;;;;;5073493;28;20424;-85
2021/04/01 04:20:07;;;;;;;23.53;13.33;;;13.30;79.70;;;;;;5056447;28;20035;-84
2021/04/01 04:22:33;;;;;;;26.40;14.57;;;13.30;80.10;;;;;;5056199;28;20024;-85
2021/04/01 04:25:00;;;;;;;28.40;14.43;;;13.20;79.80;;;;;;5056039;28;20033;-85
2021/04/01 04:30:00;;;;;;;25.77;14.23;;;13.20;79.70;;;;;;5074301;28;20553;-85
2021/04/01 04:32:28;;;;;;;32.13;15.17;;;13.30;79.50;;;;;;5055927;28;20116;-88
2021/04/01 04:34:53;;;;;;;30.50;15.77;;;13.30;79.60;;;;;;5056154;28;20040;-85
2021/04/01 04:37:20;;;;;;;34.77;17.10;;;13.30;79.50;;;;;;5055956;28;20483;-85
2021/04/01 04:39:45;;;;;;;29.90;16.60;;;13.30;79.40;;;;;;5055936;28;20481;-85
2021/04/01 04:42:11;;;;;;;34.10;16.93;;;13.30;79.70;;;;;;5073913;28;20120;-84
2021/04/01 04:44:37;;;;;;;36.53;16.77;;;13.20;79.30;;;;;;5055755;28;20119;-84
2021/04/01 04:47:03;;;;;;;34.83;17.57;;;13.30;79.60;;;;;;5073762;28;20039;-85
2021/04/01 04:49:28;;;;;;;32.63;17.23;;;13.20;79.30;;;;;;5055513;28;20496;-88
2021/04/01 04:51:54;;;;;;;31.33;16.37;;;13.20;79.50;;;;;;5073535;28;20032;-85
2021/04/01 04:54:20;;;;;;;38.60;18.10;;;13.20;79.40;;;;;;5055611;28;20081;-85
2021/04/01 04:56:47;;;;;;;35.70;17.43;;;13.10;79.60;;;;;;5055736;28;20032;-85
2021/04/01 05:04:45;;;;;;;31.90;16.63;;;13.00;79.80;;;;;;5073428;28;20035;-85
2021/04/01 05:07:10;;;;;;;32.90;16.53;;;13.10;79.40;;;;;;5055486;28;20404;-85
2021/04/01 05:09:36;;;;;;;33.60;16.73;;;13.10;79.50;;;;;;5073086;28;20103;-85
2021/04/01 05:12:02;;;;;;;34.73;17.37;;;13.10;79.50;;;;;;5072912;28;20051;-85
2021/04/01 05:14:28;;;;;;;38.80;18.57;;;13.10;79.70;;;;;;5071880;28;20071;-85
2021/04/01 05:16:54;;;;;;;35.23;18.30;;;13.00;79.60;;;;;;5073122;28;20039;-85
2021/04/01 05:19:21;;;;;;;35.77;18.00;;;13.10;80.10;;;;;;5073187;28;20420;-85
2021/04/01 05:24:24;;;;;;;46.47;18.17;;;13.00;80.10;;;;;;5073093;28;20028;-86
2021/04/01 05:29:21;;;;;;;38.13;18.83;;;13.00;80.40;;;;;;5073281;28;20432;-86
2021/04/01 05:31:49;;;;;;;36.43;18.40;;;13.00;80.40;;;;;;5071515;28;20503;-85
2021/04/01 05:34:15;;;;;;;34.60;18.00;;;12.90;80.80;;;;;;5072675;28;20477;-85
2021/04/01 05:36:44;;;;;;;38.87;17.83;;;12.90;80.70;;;;;;5054256;28;20074;-84
2021/04/01 05:39:13;;;;;;;34.67;18.80;;;12.90;80.50;;;;;;5072783;28;20023;-85
2021/04/01 05:41:40;;;;;;;33.97;19.20;;;13.00;80.50;;;;;;5072803;28;20051;-85
2021/04/01 05:47:01;;;;;;;36.00;18.47;;;12.80;80.80;;;;;;5073169;28;20027;-85
2021/04/01 06:05:38;;;;;;;41.53;20.70;;;12.80;81.40;;;;;;5072866;28;20056;-85
2021/04/01 06:08:14;;;;;;;46.43;21.53;;;12.80;81.40;;;;;;5054645;28;20032;-85
2021/04/01 06:10:40;;;;;;;45.77;21.07;;;12.70;81.80;;;;;;5055248;28;20082;-86
2021/04/01 06:13:10;;;;;;;40.43;20.97;;;12.70;81.80;;;;;;5073152;28;20020;-85
2021/04/01 06:15:36;;;;;;;43.60;20.40;;;12.70;81.80;;;;;;5072812;28;20359;-85
2021/04/01 06:18:11;;;;;;;43.70;20.87;;;12.80;81.90;;;;;;5072495;28;20052;-85
2021/04/01 06:20:39;;;;;;;41.37;20.50;;;12.80;81.90;;;;;;5072254;28;20021;-86
2021/04/01 06:23:05;;;;;;;42.80;20.47;;;12.80;81.70;;;;;;5070999;28;20021;-87
2021/04/01 06:25:39;;;;;;;45.97;19.63;;;12.90;81.90;;;;;;5054357;28;20157;-85
2021/04/01 06:28:12;;;;;;;39.33;18.80;;;12.90;81.20;;;;;;5071192;28;20082;-85
2021/04/01 06:30:49;;;;;;;39.73;19.57;;;12.90;81.50;;;;;;5071050;28;20029;-85
2021/04/01 06:33:20;;;;;;;42.53;21.47;;;13.00;81.50;;;;;;5054321;28;20033;-85
2021/04/01 06:35:49;;;;;;;41.50;20.53;;;13.00;81.50;;;;;;5054540;28;20028;-85
2021/04/01 06:40:43;;;;;;;41.87;21.13;;;13.00;81.60;;;;;;5072639;28;20357;-86
2021/04/01 06:43:19;;;;;;;55.83;21.77;;;13.10;81.80;;;;;;5054226;28;20024;-88
2021/04/01 06:46:06;;;;;;;59.23;19.97;;;13.30;81.40;;;;;;5054337;28;20028;-86
2021/04/01 06:51:39;;;;;;;53.50;19.87;;;13.40;80.80;;;;;;5034421;28;20028;-86
2021/04/01 06:54:13;;;;;;;58.47;18.83;;;13.50;81.00;;;;;;5057982;28;20048;-85
2021/04/01 07:02:11;;;;;;;63.70;21.00;;;13.60;81.00;;;;;;5075963;28;20142;-87
2021/04/01 07:04:37;;;;;;;49.93;20.00;;;13.60;80.80;;;;;;5057846;28;20031;-85
2021/04/01 07:07:12;;;;;;;51.80;21.10;;;13.70;80.70;;;;;;5057776;28;20435;-85
2021/04/01 07:12:26;;;;;;;60.23;23.00;;;13.80;80.70;;;;;;5075682;28;20032;-85
2021/04/01 07:15:04;;;;;;;53.07;22.50;;;13.80;79.70;;;;;;5058053;28;20038;-85
2021/04/01 07:17:54;;;;;;;63.13;23.17;;;13.90;79.60;;;;;;5057805;28;20025;-86
2021/04/01 07:47:43;;;;;;;55.42;26.70;;;14.50;76.30;;;;;;5074813;28;20466;-85
2021/04/01 07:50:13;;;;;;;51.65;26.08;;;14.60;76.30;;;;;;5073596;28;20032;-85
2021/04/01 07:52:41;;;;;;;52.47;25.77;;;14.60;76.60;;;;;;5057050;28;20477;-88
2021/04/01 07:55:14;;;;;;;64.47;28.67;;;14.70;75.70;;;;;;5056838;28;20025;-85
2021/04/01 08:03:50;;;;;;;55.35;27.00;;;14.80;73.30;;;;;;5075009;28;20032;-85
2021/04/01 08:06:05;;;;;;;54.40;27.20;;;14.90;73.30;;;;;;5074325;28;20031;-85
2021/04/01 08:08:37;;;;;;;61.42;28.38;;;14.90;72.60;;;;;;5056584;28;20025;-85
2021/04/01 08:11:05;;;;;;;64.47;30.70;;;15.00;72.70;;;;;;5056348;28;20028;-86
2021/04/01 08:13:34;;;;;;;66.55;31.83;;;15.00;72.10;;;;;;5056426;28;20035;-85
2021/04/01 08:16:10;;;;;;;74.32;32.00;;;15.10;71.30;;;;;;5056207;28;20059;-86
2021/04/01 08:18:40;;;;;;;70.60;32.17;;;15.10;71.00;;;;;;5056347;28;20056;-86
2021/04/01 08:21:08;;;;;;;71.85;32.53;;;15.20;70.80;;;;;;5056300;28;20540;-85
2021/04/01 08:32:01;;;;;;;86.35;37.22;;;15.50;65.80;;;;;;5056784;28;20036;-85
2021/04/01 08:36:53;;;;;;;85.78;36.25;;;15.60;65.40;;;;;;5074017;28;20481;-86
2021/04/01 08:39:21;;;;;;;86.78;38.53;;;15.70;65.80;;;;;;5056653;28;20025;-86
2021/04/01 08:42:05;;;;;;;102.60;40.53;;;15.70;65.50;;;;;;5056157;28;20475;-85
2021/04/01 08:44:52;;;;;;;86.28;38.20;;;15.80;65.70;;;;;;5055957;28;20071;-86
2021/04/01 08:47:32;;;;;;;90.85;40.15;;;15.80;65.50;;;;;;5056072;28;20392;-85
2021/04/01 08:50:30;;;;;;;95.95;39.33;;;15.80;65.80;;;;;;5055779;28;20025;-85
2021/04/01 08:53:08;;;;;;;100.53;40.33;;;15.90;64.90;;;;;;5055766;28;20029;-85
2021/04/01 08:56:11;;;;;;;87.93;38.63;;;15.90;64.70;;;;;;5055698;28;20033;-85
2021/04/01 08:58:42;;;;;;;96.63;39.42;;;16.00;64.80;;;;;;5053359;28;20029;-86
2021/04/01 09:01:16;;;;;;;95.38;39.00;;;16.00;64.30;;;;;;5055576;28;20051;-85
2021/04/01 09:03:44;;;;;;;91.75;37.22;;;16.00;63.60;;;;;;5055537;28;20473;-85
2021/04/01 09:06:12;;;;;;;91.20;36.95;;;16.00;64.60;;;;;;5055501;28;20066;-85
2021/04/01 09:08:45;;;;;;;87.78;36.65;;;16.10;64.20;;;;;;5055530;28;20017;-85
2021/04/01 09:11:12;;;;;;;84.43;35.17;;;16.10;64.00;;;;;;5054452;28;20040;-85
2021/04/01 09:13:45;;;;;;;77.55;33.65;;;16.20;63.20;;;;;;5055197;28;20016;-85
2021/04/01 09:16:19;;;;;;;72.05;32.58;;;16.20;63.20;;;;;;5055205;28;20016;-85
2021/04/01 09:18:46;;;;;;;91.60;37.45;;;16.10;63.50;;;;;;5055421;28;20038;-85
2021/04/01 09:21:12;;;;;;;76.03;34.33;;;16.20;63.40;;;;;;5055188;28;20111;-85
2021/04/01 09:23:43;;;;;;;75.93;33.75;;;16.20;63.80;;;;;;5055324;28;20112;-85
2021/04/01 09:26:14;;;;;;;76.03;32.45;;;16.30;62.10;;;;;;5055376;28;20051;-87
2021/04/01 09:28:44;;;;;;;74.40;30.90;;;16.30;60.70;;;;;;5055592;28;20394;-86
2021/04/01 09:31:13;;;;;;;74.47;30.17;;;16.20;60.50;;;;;;5055013;28;20036;-85
2021/04/01 09:33:40;;;;;;;81.47;32.67;;;16.20;60.70;;;;;;5055088;28;20056;-85
2021/04/01 09:36:11;;;;;;;83.43;33.85;;;16.20;61.30;;;;;;5055882;28;20024;-85
2021/04/01 09:38:39;;;;;;;83.35;33.42;;;16.40;58.70;;;;;;5054790;28;20024;-85
2021/04/01 09:41:06;;;;;;;75.18;33.33;;;16.60;59.20;;;;;;5054977;28;20024;-85
2021/04/01 09:43:32;;;;;;;85.30;35.55;;;16.60;58.90;;;;;;5054814;28;20659;-85
2021/04/01 09:46:12;;;;;;;89.50;37.05;;;16.80;59.70;;;;;;5054781;28;20078;-88
2021/04/01 09:48:56;;;;;;;88.72;38.88;;;16.80;61.10;;;;;;5054908;28;20055;-85
2021/04/01 09:51:22;;;;;;;83.30;37.53;;;16.90;62.30;;;;;;5054552;28;20028;-85
2021/04/01 09:53:53;;;;;;;84.93;36.88;;;16.90;61.70;;;;;;5054854;28;20069;-85
2021/04/01 09:56:31;;;;;;;96.75;38.58;;;16.90;62.90;;;;;;5054689;28;20024;-85
2021/04/01 09:58:58;;;;;;;96.30;37.13;;;17.00;63.40;;;;;;5054785;28;20166;-85
2021/04/01 10:01:30;;;;;;;88.50;38.65;;;17.10;63.80;;;;;;5054676;28;20324;-85
2021/04/01 10:04:05;;;;;;;94.97;38.28;;;17.00;64.20;;;;;;5054599;28;20058;-85
2021/04/01 10:06:52;;;;;;;95.00;37.05;;;17.00;64.30;;;;;;5054849;28;20500;-86
2021/04/01 10:09:19;;;;;;;88.93;37.95;;;17.10;64.70;;;;;;5054585;28;20170;-85
2021/04/01 10:11:57;;;;;;;86.75;36.42;;;17.10;65.40;;;;;;5054445;28;20546;-87
2021/04/01 10:14:24;;;;;;;88.95;37.60;;;17.10;64.40;;;;;;5054634;28;20043;-85
2021/04/01 10:16:51;;;;;;;90.75;38.13;;;17.20;64.90;;;;;;5054514;28;20104;-85
2021/04/01 10:19:19;;;;;;;87.47;37.40;;;17.20;64.60;;;;;;5054805;28;20366;-86
2021/04/01 10:21:46;;;;;;;93.55;38.47;;;17.20;63.30;;;;;;5055854;28;20026;-86
2021/04/01 10:24:30;;;;;;;86.97;37.58;;;17.30;64.20;;;;;;5058993;28;20025;-86
2021/04/01 10:27:12;;;;;;;87.70;37.90;;;17.30;65.30;;;;;;5059403;28;20020;-85
2021/04/01 10:32:08;;;;;;;91.80;38.78;;;17.40;64.50;;;;;;5076759;28;20153;-85
2021/04/01 10:34:49;;;;;;;97.03;39.30;;;17.40;63.70;;;;;;5058351;28;20036;-85
2021/04/01 10:37:16;;;;;;;99.07;39.10;;;17.40;62.50;;;;;;5059044;28;20028;-85
2021/04/01 10:39:42;;;;;;;96.45;37.65;;;17.40;62.10;;;;;;5058441;28;20137;-85
2021/04/01 10:42:13;;;;;;;87.18;36.97;;;17.40;61.60;;;;;;5058510;28;20078;-85
2021/04/01 10:44:40;;;;;;;87.72;35.45;;;17.40;61.50;;;;;;5058241;28;20028;-85
2021/04/01 10:47:08;;;;;;;90.20;35.35;;;17.40;61.10;;;;;;5058114;28;20074;-86
2021/04/01 10:49:36;;;;;;;87.70;35.20;;;17.40;60.90;;;;;;5058187;28;20024;-85
2021/04/01 10:52:05;;;;;;;92.18;34.85;;;17.40;61.60;;;;;;5057758;28;20037;-85
2021/04/01 10:54:39;;;;;;;85.78;35.33;;;17.40;61.90;;;;;;5058038;28;20086;-85
2021/04/01 10:57:07;;;;;;;88.38;36.13;;;17.40;61.40;;;;;;5058102;28;20027;-85
2021/04/01 10:59:32;;;;;;;92.00;36.50;;;17.50;61.00;;;;;;5058122;28;20048;-85
2021/04/01 11:02:01;;;;;;;83.88;34.10;;;17.50;60.90;;;;;;5057959;28;20059;-85
2021/04/01 11:04:29;;;;;;;85.35;32.63;;;17.50;59.90;;;;;;5057782;28;20115;-85
2021/04/01 11:07:00;;;;;;;89.28;31.88;;;17.50;59.10;;;;;;5058109;28;20024;-85
2021/04/01 11:09:30;;;;;;;94.38;33.95;;;17.60;59.50;;;;;;5057832;28;20024;-85
2021/04/01 11:14:25;;;;;;;84.63;35.45;;;17.60;60.10;;;;;;5075907;28;20024;-86
2021/04/01 11:16:52;;;;;;;84.25;34.45;;;17.70;60.40;;;;;;5057703;28;20549;-85
2021/04/01 11:19:19;;;;;;;84.70;34.03;;;17.70;61.60;;;;;;5057396;28;20115;-86
2021/04/01 11:21:49;;;;;;;82.30;35.00;;;17.70;61.10;;;;;;5057556;28;20556;-85
2021/04/01 11:24:30;;;;;;;87.95;36.00;;;17.70;61.80;;;;;;5057906;28;20032;-86
2021/04/01 11:27:04;;;;;;;85.07;39.30;;;17.70;62.50;;;;;;5057672;28;20043;-85
2021/04/01 11:29:31;;;;;;;86.25;39.28;;;17.70;62.90;;;;;;5057484;28;20127;-85
2021/04/01 11:32:27;;;;;;;90.30;38.90;;;17.70;63.50;;;;;;5057226;28;20036;-85
2021/04/01 11:34:55;;;;;;;92.72;39.63;;;17.80;63.80;;;;;;5051914;28;20140;-86
2021/04/01 11:37:23;;;;;;;95.47;41.28;;;17.70;64.20;;;;;;5057401;28;20021;-85
2021/04/01 11:39:55;;;;;;;94.75;42.33;;;17.70;64.50;;;;;;5057392;28;20032;-86
2021/04/01 11:42:21;;;;;;;102.07;44.30;;;17.70;64.50;;;;;;5057300;28;20037;-86
2021/04/01 11:44:46;;;;;;;93.20;42.05;;;17.70;65.20;;;;;;5057319;28;20024;-85
2021/04/01 11:47:17;;;;;;;95.47;44.00;;;17.70;66.30;;;;;;5057778;28;20036;-85
2021/04/01 11:49:47;;;;;;;103.32;46.80;;;17.70;66.10;;;;;;5057393;28;20031;-85
2021/04/01 11:52:15;;;;;;;105.72;46.78;;;17.60;65.60;;;;;;5056962;28;20459;-86
2021/04/01 11:54:41;;;;;;;101.50;47.87;;;17.60;65.80;;;;;;5056941;28;20504;-86
2021/04/01 11:57:16;;;;;;;103.30;48.92;;;17.60;65.70;;;;;;5074816;28;20027;-85
2021/04/01 11:59:51;;;;;;;104.38;48.92;;;17.60;65.90;;;;;;5056710;28;20012;-85
2021/04/01 12:02:18;;;;;;;97.07;47.83;;;17.60;66.00;;;;;;5056698;28;20021;-85
2021/04/01 12:04:46;;;;;;;103.43;50.45;;;17.60;65.50;;;;;;5056605;28;20063;-85
2021/04/01 12:07:12;;;;;;;105.10;51.97;;;17.60;65.60;;;;;;5056576;28;20028;-86
2021/04/01 12:09:38;;;;;;;106.93;52.90;;;17.60;65.00;;;;;;5056611;28;20025;-85
2021/04/01 12:12:05;;;;;;;106.57;50.47;;;17.50;64.80;;;;;;5056554;28;20048;-85
2021/04/01 12:14:38;;;;;;;111.15;51.75;;;17.50;65.20;;;;;;5056184;28;20021;-84
2021/04/01 12:17:05;;;;;;;104.65;50.97;;;17.50;65.10;;;;;;5056519;28;20450;-86
2021/04/01 12:19:35;;;;;;;96.07;49.70;;;17.50;63.60;;;;;;5056460;28;20534;-85
2021/04/01 12:22:09;;;;;;;99.43;49.83;;;17.40;64.20;;;;;;5056548;28;20051;-85
2021/04/01 12:24:36;;;;;;;102.32;50.85;;;17.40;64.40;;;;;;5056152;28;20028;-85
2021/04/01 12:27:02;;;;;;;100.93;50.10;;;17.50;64.50;;;;;;5056300;28;20052;-86
2021/04/01 12:29:28;;;;;;;103.38;50.22;;;17.40;64.30;;;;;;5056175;28;20025;-86
2021/04/01 12:31:58;;;;;;;93.45;48.00;;;17.50;64.70;;;;;;5056017;28;20029;-87
2021/04/01 12:34:31;;;;;;;88.78;46.00;;;17.50;63.10;;;;;;5056068;28;20039;-85
2021/04/01 12:37:01;;;;;;;95.35;46.97;;;17.50;63.30;;;;;;5055997;28;20031;-85
2021/04/01 12:39:32;;;;;;;91.35;47.85;;;17.40;62.70;;;;;;5055930;28;20074;-85
2021/04/01 12:41:58;;;;;;;95.57;49.13;;;17.40;63.20;;;;;;5056068;28;20032;-86
2021/04/01 12:44:43;;;;;;;93.22;49.60;;;17.40;63.90;;;;;;5055943;28;20036;-85
2021/04/01 12:47:09;;;;;;;100.50;50.90;;;17.40;64.30;;;;;;5055775;28;20119;-86
2021/04/01 12:49:36;;;;;;;91.25;47.60;;;17.40;64.60;;;;;;5055765;28;20062;-85
2021/04/01 12:52:04;;;;;;;84.38;45.50;;;17.40;64.20;;;;;;5055678;28;20077;-85
2021/04/01 12:54:39;;;;;;;87.32;44.60;;;17.40;63.40;;;;;;5055835;28;20016;-85
2021/04/01 12:57:09;;;;;;;76.47;40.88;;;17.40;64.00;;;;;;5055589;28;20025;-85
2021/04/01 12:59:48;;;;;;;76.22;38.42;;;17.40;61.60;;;;;;5055617;28;20481;-86
2021/04/01 13:02:15;;;;;;;;;;;17.30;60.40;;;;;;5055968;28;20572;-85
2021/04/01 13:04:43;;;;;;;73.32;35.78;;;17.40;60.50;;;;;;5055553;28;19948;-85
2021/04/01 13:07:23;;;;;;;64.35;33.97;;;17.40;61.00;;;;;;5055474;28;20111;-85
2021/04/01 13:09:59;;;;;;;60.88;31.25;;;17.30;61.00;;;;;;5055539;28;20024;-85
2021/04/01 13:12:25;;;;;;;55.40;29.48;;;17.30;61.20;;;;;;5055252;28;20028;-85
2021/04/01 13:14:51;;;;;;;64.47;31.77;;;17.30;61.40;;;;;;5055392;28;20021;-85
2021/04/01 13:17:17;;;;;;;52.42;28.38;;;17.40;61.70;;;;;;5055335;28;20115;-85
2021/04/01 13:19:43;;;;;;;52.33;26.20;;;17.30;61.60;;;;;;5055285;28;20027;-85
2021/04/01 13:27:02;;;;;;;37.67;19.42;;;17.30;61.30;;;;;;5072889;28;20027;-85
2021/04/01 13:29:32;;;;;;;35.00;18.17;;;17.30;60.70;;;;;;5055067;28;20488;-84
2021/04/01 13:32:02;;;;;;;29.02;14.38;;;17.30;60.70;;;;;;5054931;28;20161;-85
2021/04/01 13:39:58;;;;;;;24.48;11.27;;;17.30;59.40;;;;;;5054454;28;20540;-85
2021/04/01 13:42:29;;;;;;;20.67;9.98;;;17.20;60.10;;;;;;5072368;28;20016;-86
2021/04/01 13:45:00;;;;;;;26.58;11.02;;;17.20;60.60;;;;;;5072718;28;20024;-86
2021/04/01 13:47:27;;;;;;;18.98;9.75;;;17.20;60.10;;;;;;5054907;28;20024;-86
2021/04/01 13:49:55;;;;;;;15.70;8.60;;;17.20;59.90;;;;;;5054028;28;20024;-86
2021/04/01 13:55:19;;;;;;;19.48;8.98;;;17.30;60.10;;;;;;5072691;28;20278;-86
2021/04/01 14:09:28;;;;;;;13.90;7.05;;;17.20;61.90;;;;;;5009830;28;20063;-85
2021/04/01 14:11:57;;;;;;;16.15;6.90;;;17.20;62.30;;;;;;5035686;28;20040;-85
2021/04/01 14:14:23;;;;;;;12.68;5.97;;;17.30;62.30;;;;;;5054480;28;20028;-85
2021/04/01 14:16:52;;;;;;;12.93;5.40;;;17.30;62.20;;;;;;5072231;28;20028;-85
2021/04/01 14:19:20;;;;;;;14.57;5.68;;;17.30;62.60;;;;;;5071800;28;20035;-85
2021/04/01 14:21:54;;;;;;;11.93;4.97;;;17.30;62.40;;;;;;5054057;28;20023;-86
2021/04/01 14:24:30;;;;;;;14.13;5.10;;;17.30;63.10;;;;;;5054363;28;20025;-85
2021/04/01 14:29:26;;;;;;;13.27;4.90;;;17.30;64.20;;;;;;5071584;28;20043;-86
2021/04/01 14:31:52;;;;;;;11.98;3.80;;;17.30;64.00;;;;;;5071920;28;20066;-85
2021/04/01 14:34:21;;;;;;;12.10;4.45;;;17.40;64.30;;;;;;5053843;28;20121;-86
2021/04/01 14:36:49;;;;;;;12.27;3.83;;;17.40;64.00;;;;;;5072099;28;20388;-85
2021/04/01 14:39:16;;;;;;;11.90;4.10;;;17.50;63.40;;;;;;5053599;28;20158;-85
2021/04/01 14:41:54;;;;;;;12.23;4.47;;;17.40;63.50;;;;;;5053911;28;20024;-86
2021/04/01 14:44:21;;;;;;;13.10;3.85;;;17.50;63.30;;;;;;5070599;28;20028;-85
2021/04/01 14:46:48;;;;;;;13.25;4.57;;;17.50;63.70;;;;;;5072310;28;20024;-85
2021/04/01 14:49:14;;;;;;;15.32;5.07;;;17.50;63.70;;;;;;5070018;28;20489;-86
2021/04/01 14:51:42;;;;;;;16.02;5.53;;;17.50;63.20;;;;;;5054041;28;20117;-86
2021/04/01 14:54:23;;;;;;;13.55;6.75;;;17.50;62.80;;;;;;5071705;28;20017;-86
2021/04/01 14:56:54;;;;;;;11.35;4.47;;;17.50;62.00;;;;;;5071787;28;20035;-85